createdAt,value
2019-01-13T00:00:35.362Z,82.20
2019-01-13T00:03:04.188Z,82.17
2019-01-13T00:05:32.575Z,82.03
2019-01-13T00:08:01.196Z,82.03
2019-01-13T00:10:30.363Z,82.08
2019-01-13T00:12:58.829Z,81.98
2019-01-13T00:15:27.224Z,81.94
2019-01-13T00:17:55.987Z,81.83
2019-01-13T00:20:24.375Z,81.83
2019-01-13T00:22:52.892Z,81.96
2019-01-13T00:25:21.444Z,81.85
2019-01-13T00:27:49.826Z,81.82
2019-01-13T00:30:20.111Z,81.66
2019-01-13T00:32:48.558Z,81.54
2019-01-13T00:35:17.032Z,81.54
2019-01-13T00:37:45.671Z,81.89
2019-01-13T00:40:16.483Z,81.89
2019-01-13T00:42:45.199Z,82.02
2019-01-13T00:45:15.062Z,82.02
2019-01-13T00:47:43.826Z,81.94
2019-01-13T00:50:14.920Z,82.05
2019-01-13T00:52:45.261Z,82.45
2019-01-13T00:55:15.514Z,82.45
2019-01-13T00:57:44.079Z,83.16
2019-01-13T01:00:26.197Z,83.16
2019-01-13T01:02:49.647Z,83.16
2019-01-13T01:05:18.275Z,83.33
2019-01-13T01:07:48.472Z,83.70
2019-01-13T01:10:18.335Z,83.81
2019-01-13T01:12:46.821Z,83.39
2019-01-13T01:15:16.345Z,83.69
2019-01-13T01:17:45.648Z,83.66
2019-01-13T01:20:16.181Z,83.66
2019-01-13T01:22:44.746Z,83.66
2019-01-13T01:25:15.788Z,83.64
2019-01-13T01:27:44.893Z,83.64
2019-01-13T01:30:20.573Z,83.67
2019-01-13T01:32:48.960Z,83.58
2019-01-13T01:35:18.226Z,83.82
2019-01-13T01:37:47.309Z,83.82
2019-01-13T01:40:17.930Z,83.64
2019-01-13T01:42:46.734Z,83.73
2019-01-13T01:45:17.176Z,83.84
2019-01-13T01:47:46.058Z,83.83
2019-01-13T01:50:15.310Z,83.68
2019-01-13T01:52:44.251Z,83.42
2019-01-13T01:55:15.462Z,83.34
2019-01-13T01:57:44.154Z,83.22
2019-01-13T02:00:15.450Z,83.26
2019-01-13T02:02:43.918Z,83.21
2019-01-13T02:05:12.312Z,83.21
2019-01-13T02:07:41.024Z,83.51
2019-01-13T02:10:15.136Z,83.51
2019-01-13T02:12:43.598Z,83.33
2019-01-13T02:15:15.537Z,83.28
2019-01-13T02:17:44.193Z,83.03
2019-01-13T02:20:15.432Z,83.05
2019-01-13T02:22:44.124Z,83.05
2019-01-13T02:25:15.459Z,83.00
2019-01-13T02:27:44.193Z,82.94
2019-01-13T02:30:15.939Z,82.95
2019-01-13T02:32:44.624Z,82.79
2019-01-13T02:35:13.097Z,82.61
2019-01-13T02:37:41.897Z,82.87
2019-01-13T02:40:13.301Z,82.87
2019-01-13T02:42:41.704Z,82.90
2019-01-13T02:45:13.145Z,82.90
2019-01-13T02:47:41.870Z,82.94
2019-01-13T02:50:12.319Z,83.83
2019-01-13T02:52:40.759Z,83.83
2019-01-13T02:55:09.686Z,84.01
2019-01-13T02:57:38.147Z,84.05
2019-01-13T03:00:12.145Z,84.10
2019-01-13T03:02:40.809Z,84.37
2019-01-13T03:05:11.852Z,84.22
2019-01-13T03:07:40.383Z,84.22
2019-01-13T03:10:11.821Z,84.39
2019-01-13T03:12:40.498Z,84.38
2019-01-13T03:15:19.669Z,84.46
2019-01-13T03:17:41.343Z,84.47
2019-01-13T03:20:12.150Z,84.64
2019-01-13T03:22:40.629Z,84.91
2019-01-13T03:25:12.126Z,84.91
2019-01-13T03:27:40.723Z,85.04
2019-01-13T03:30:12.161Z,85.25
2019-01-13T03:32:40.560Z,85.25
2019-01-13T03:35:09.669Z,85.81
2019-01-13T03:37:38.528Z,85.45
2019-01-13T03:40:09.978Z,85.45
2019-01-13T03:42:38.388Z,85.60
2019-01-13T03:45:09.648Z,85.62
2019-01-13T03:47:38.039Z,85.79
2019-01-13T03:50:09.506Z,85.79
2019-01-13T03:52:38.248Z,85.82
2019-01-13T03:55:08.319Z,85.97
2019-01-13T03:57:37.033Z,85.97
2019-01-13T04:00:11.828Z,86.01
2019-01-13T04:02:40.220Z,85.95
2019-01-13T04:05:08.761Z,85.84
2019-01-13T04:07:37.502Z,85.86
2019-01-13T04:10:09.136Z,85.83
2019-01-13T04:12:37.534Z,85.84
2019-01-13T04:15:08.966Z,85.91
2019-01-13T04:17:37.678Z,85.95
2019-01-13T04:20:06.821Z,86.00
2019-01-13T04:22:35.211Z,86.10
2019-01-13T04:25:04.966Z,85.97
2019-01-13T04:27:33.371Z,85.94
2019-01-13T04:30:02.184Z,86.07
2019-01-13T04:32:30.573Z,86.13
2019-01-13T04:34:58.966Z,86.33
2019-01-13T04:37:27.394Z,86.39
2019-01-13T04:39:55.780Z,86.00
2019-01-13T04:42:24.174Z,86.05
2019-01-13T04:44:52.817Z,86.05
2019-01-13T04:47:21.507Z,86.01
2019-01-13T04:49:49.898Z,85.99
2019-01-13T04:52:18.573Z,85.90
2019-01-13T04:54:46.977Z,85.90
2019-01-13T04:57:15.366Z,85.98
2019-01-13T04:59:43.785Z,85.98
2019-01-13T05:02:12.172Z,85.81
2019-01-13T05:04:40.602Z,85.84
2019-01-13T05:07:08.998Z,85.85
2019-01-13T05:09:37.729Z,85.80
2019-01-13T05:12:06.230Z,85.82
2019-01-13T05:14:34.897Z,86.03
2019-01-13T05:17:03.293Z,85.88
2019-01-13T05:19:31.677Z,85.64
2019-01-13T05:22:00.132Z,85.64
2019-01-13T05:24:28.597Z,85.85
2019-01-13T05:26:57.000Z,86.41
2019-01-13T05:29:25.709Z,86.41
2019-01-13T05:31:54.078Z,86.34
2019-01-13T05:34:22.752Z,86.09
2019-01-13T05:36:51.250Z,86.09
2019-01-13T05:39:19.659Z,86.14
2019-01-13T05:41:48.220Z,86.45
2019-01-13T05:44:16.626Z,86.45
2019-01-13T05:46:45.005Z,86.37
2019-01-13T05:49:13.400Z,86.34
2019-01-13T05:51:41.843Z,86.49
2019-01-13T05:54:10.186Z,86.65
2019-01-13T05:56:38.692Z,86.61
2019-01-13T05:59:07.149Z,86.56
2019-01-13T06:01:35.600Z,86.52
2019-01-13T06:04:04.351Z,86.48
2019-01-13T06:06:33.108Z,86.36
2019-01-13T06:09:01.493Z,86.28
2019-01-13T06:11:30.177Z,86.12
2019-01-13T06:13:58.860Z,86.05
2019-01-13T06:16:27.265Z,85.95
2019-01-13T06:18:55.733Z,85.95
2019-01-13T06:21:24.119Z,86.04
2019-01-13T06:23:52.512Z,86.09
2019-01-13T06:26:21.077Z,85.98
2019-01-13T06:28:49.775Z,86.00
2019-01-13T06:31:18.170Z,86.03
2019-01-13T06:33:46.548Z,86.03
2019-01-13T06:36:15.233Z,86.07
2019-01-13T06:38:43.639Z,86.00
2019-01-13T06:41:12.080Z,86.00
2019-01-13T06:43:40.566Z,85.90
2019-01-13T06:46:08.951Z,86.05
2019-01-13T06:48:37.335Z,86.11
2019-01-13T06:51:05.918Z,86.27
2019-01-13T06:53:34.289Z,86.27
2019-01-13T06:56:02.703Z,86.42
2019-01-13T06:58:31.110Z,86.29
2019-01-13T07:00:59.566Z,86.29
2019-01-13T07:03:28.076Z,86.07
2019-01-13T07:05:56.578Z,86.07
2019-01-13T07:08:24.972Z,85.93
2019-01-13T07:10:53.367Z,86.17
2019-01-13T07:13:21.788Z,86.17
2019-01-13T07:15:50.184Z,86.20
2019-01-13T07:18:18.578Z,86.15
2019-01-13T07:20:46.970Z,86.19
2019-01-13T07:23:15.364Z,86.31
2019-01-13T07:25:43.768Z,86.58
2019-01-13T07:28:12.175Z,86.55
2019-01-13T07:30:40.559Z,86.55
2019-01-13T07:33:09.245Z,86.52
2019-01-13T07:35:37.645Z,86.68
2019-01-13T07:38:06.028Z,86.68
2019-01-13T07:40:34.685Z,86.73
2019-01-13T07:43:03.157Z,86.66
2019-01-13T07:45:31.966Z,86.66
2019-01-13T07:48:00.459Z,86.49
2019-01-13T07:50:28.867Z,86.26
2019-01-13T07:52:57.254Z,86.49
2019-01-13T07:55:25.800Z,86.49
2019-01-13T07:57:54.571Z,86.23
2019-01-13T08:00:28.682Z,86.23
2019-01-13T08:02:57.197Z,86.62
2019-01-13T08:05:26.086Z,86.76
2019-01-13T08:07:54.556Z,86.58
2019-01-13T08:10:23.226Z,86.58
2019-01-13T08:12:51.626Z,86.58
2019-01-13T08:15:21.819Z,86.80
2019-01-13T08:17:50.656Z,86.97
2019-01-13T08:20:27.664Z,86.97
2019-01-13T08:22:56.593Z,86.52
2019-01-13T08:25:25.274Z,86.65
2019-01-13T08:27:53.662Z,86.81
2019-01-13T08:30:22.181Z,86.72
2019-01-13T08:32:50.922Z,86.82
2019-01-13T08:35:20.225Z,86.82
2019-01-13T08:37:49.009Z,87.07
2019-01-13T08:40:19.845Z,87.24
2019-01-13T08:42:48.790Z,86.99
2019-01-13T08:45:17.640Z,86.99
2019-01-13T08:47:46.129Z,86.96
2019-01-13T08:50:17.237Z,87.08
2019-01-13T08:52:45.923Z,86.94
2019-01-13T08:55:15.934Z,87.03
2019-01-13T08:57:44.776Z,87.01
2019-01-13T09:00:21.677Z,87.01
2019-01-13T09:02:50.075Z,87.15
2019-01-13T09:05:18.533Z,87.20
2019-01-13T09:07:46.914Z,87.08
2019-01-13T09:10:17.646Z,87.08
2019-01-13T09:12:46.190Z,87.22
2019-01-13T09:15:19.871Z,87.33
2019-01-13T09:17:48.612Z,87.19
2019-01-13T09:20:19.531Z,87.33
2019-01-13T09:22:47.999Z,87.39
2019-01-13T09:25:16.614Z,87.39
2019-01-13T09:27:45.083Z,87.50
2019-01-13T09:30:25.412Z,87.35
2019-01-13T09:32:53.891Z,87.39
2019-01-13T09:35:22.435Z,87.41
2019-01-13T09:37:51.811Z,87.34
2019-01-13T09:40:24.115Z,87.34
2019-01-13T09:42:53.053Z,87.08
2019-01-13T09:45:25.152Z,87.08
2019-01-13T09:47:54.461Z,87.15
2019-01-13T09:50:24.731Z,87.15
2019-01-13T09:52:53.511Z,87.16
2019-01-13T09:55:23.883Z,87.17
2019-01-13T09:57:52.454Z,87.13
2019-01-13T10:00:32.171Z,87.40
2019-01-13T10:03:01.058Z,87.31
2019-01-13T10:05:29.570Z,87.37
2019-01-13T10:07:57.953Z,86.94
2019-01-13T10:10:26.535Z,86.94
2019-01-13T10:12:55.065Z,87.12
2019-01-13T10:15:25.692Z,87.12
2019-01-13T10:17:54.599Z,87.31
2019-01-13T10:20:23.180Z,87.32
2019-01-13T10:22:51.633Z,87.18
2019-01-13T10:25:20.274Z,87.18
2019-01-13T10:27:48.874Z,87.47
2019-01-13T10:30:20.106Z,87.50
2019-01-13T10:32:54.598Z,87.37
2019-01-13T10:35:19.207Z,87.37
2019-01-13T10:37:47.608Z,87.36
2019-01-13T10:40:18.865Z,87.46
2019-01-13T10:42:47.679Z,87.46
2019-01-13T10:45:17.314Z,87.42
2019-01-13T10:47:46.540Z,87.41
2019-01-13T10:50:17.986Z,87.31
2019-01-13T10:52:47.149Z,87.33
2019-01-13T10:55:16.596Z,87.33
2019-01-13T10:57:45.167Z,87.48
2019-01-13T11:00:25.342Z,87.48
2019-01-13T11:02:54.018Z,87.73
2019-01-13T11:05:22.576Z,87.37
2019-01-13T11:07:51.296Z,87.51
2019-01-13T11:10:19.694Z,87.54
2019-01-13T11:12:48.231Z,87.54
2019-01-13T11:15:21.848Z,87.63
2019-01-13T11:17:49.187Z,87.54
2019-01-13T11:20:32.736Z,87.55
2019-01-13T11:23:02.623Z,87.66
2019-01-13T11:25:31.346Z,87.66
2019-01-13T11:27:59.733Z,87.85
2019-01-13T11:30:28.506Z,87.57
2019-01-13T11:32:57.035Z,87.73
2019-01-13T11:35:25.484Z,87.78
2019-01-13T11:37:53.879Z,87.78
2019-01-13T11:40:27.524Z,87.78
2019-01-13T11:42:56.087Z,87.69
2019-01-13T11:45:24.962Z,87.69
2019-01-13T11:47:53.410Z,87.62
2019-01-13T11:50:24.123Z,87.62
2019-01-13T11:52:52.771Z,87.65
2019-01-13T11:55:21.736Z,87.65
2019-01-13T11:57:50.597Z,87.90
2019-01-13T12:00:21.596Z,87.79
2019-01-13T12:02:49.973Z,87.59
2019-01-13T12:05:18.613Z,87.59
2019-01-13T12:07:47.607Z,87.75
2019-01-13T12:10:18.649Z,87.69
2019-01-13T12:12:47.706Z,87.46
2019-01-13T12:15:18.035Z,87.41
2019-01-13T12:17:46.752Z,87.40
2019-01-13T12:20:20.428Z,87.23
2019-01-13T12:22:49.124Z,87.24
2019-01-13T12:25:19.245Z,87.25
2019-01-13T12:27:47.980Z,87.22
2019-01-13T12:30:24.783Z,87.22
2019-01-13T12:32:53.179Z,87.15
2019-01-13T12:35:21.967Z,87.22
2019-01-13T12:37:50.498Z,87.22
2019-01-13T12:40:24.679Z,86.94
2019-01-13T12:42:53.208Z,86.94
2019-01-13T12:45:23.072Z,87.46
2019-01-13T12:47:51.686Z,87.46
2019-01-13T12:50:22.212Z,87.37
2019-01-13T12:52:50.676Z,87.33
2019-01-13T12:55:19.756Z,87.43
2019-01-13T12:57:48.167Z,87.45
2019-01-13T13:00:18.096Z,87.57
2019-01-13T13:02:46.778Z,87.50
2019-01-13T13:05:16.310Z,87.50
2019-01-13T13:07:45.234Z,87.36
2019-01-13T13:10:19.368Z,87.18
2019-01-13T13:12:47.771Z,87.18
2019-01-13T13:15:16.256Z,87.33
2019-01-13T13:17:44.637Z,87.41
2019-01-13T13:20:15.724Z,87.38
2019-01-13T13:22:44.536Z,87.26
2019-01-13T13:25:14.883Z,87.59
2019-01-13T13:27:43.349Z,87.61
2019-01-13T13:30:16.193Z,87.61
2019-01-13T13:32:45.094Z,87.50
2019-01-13T13:35:15.489Z,87.38
2019-01-13T13:37:43.909Z,87.41
2019-01-13T13:40:18.233Z,87.43
2019-01-13T13:42:47.039Z,87.52
2019-01-13T13:45:15.614Z,87.52
2019-01-13T13:47:44.390Z,87.60
2019-01-13T13:50:18.625Z,87.60
2019-01-13T13:52:47.026Z,87.55
2019-01-13T13:55:15.415Z,87.55
2019-01-13T13:57:43.794Z,87.90
2019-01-13T14:00:18.390Z,87.90
2019-01-13T14:02:47.175Z,87.71
2019-01-13T14:05:17.001Z,87.48
2019-01-13T14:07:46.019Z,87.62
2019-01-13T14:10:18.228Z,87.62
2019-01-13T14:12:46.781Z,87.74
2019-01-13T14:15:15.355Z,87.74
2019-01-13T14:17:44.581Z,87.75
2019-01-13T14:20:16.034Z,87.78
2019-01-13T14:22:44.757Z,87.74
2019-01-13T14:25:13.828Z,87.74
2019-01-13T14:27:42.815Z,87.48
2019-01-13T14:30:23.752Z,87.53
2019-01-13T14:32:52.584Z,87.61
2019-01-13T14:35:23.186Z,87.61
2019-01-13T14:37:51.740Z,87.67
2019-01-13T14:40:22.082Z,87.74
2019-01-13T14:42:50.546Z,87.71
2019-01-13T14:45:21.289Z,87.49
2019-01-13T14:47:49.670Z,87.49
2019-01-13T14:50:21.201Z,87.83
2019-01-13T14:52:50.236Z,87.70
2019-01-13T14:55:19.055Z,87.70
2019-01-13T14:57:47.769Z,87.71
2019-01-13T15:00:19.291Z,87.47
2019-01-13T15:02:47.745Z,87.47
2019-01-13T15:05:16.136Z,87.57
2019-01-13T15:07:44.528Z,87.95
2019-01-13T15:10:21.319Z,87.81
2019-01-13T15:12:49.868Z,87.81
2019-01-13T15:15:18.311Z,87.79
2019-01-13T15:17:46.756Z,87.70
2019-01-13T15:20:20.575Z,87.64
2019-01-13T15:22:51.587Z,87.64
2019-01-13T15:25:25.643Z,87.73
2019-01-13T15:27:54.029Z,87.69
2019-01-13T15:30:30.893Z,87.81
2019-01-13T15:32:59.423Z,87.81
2019-01-13T15:35:27.810Z,87.76
2019-01-13T15:37:56.364Z,87.70
2019-01-13T15:40:24.819Z,87.55
2019-01-13T15:42:53.253Z,87.51
2019-01-13T15:45:21.797Z,87.29
2019-01-13T15:47:50.201Z,87.33
2019-01-13T15:50:29.275Z,87.33
2019-01-13T15:52:57.826Z,87.64
2019-01-13T15:55:26.844Z,87.94
2019-01-13T15:57:55.358Z,87.94
2019-01-13T16:00:29.679Z,87.69
2019-01-13T16:02:58.181Z,87.69
2019-01-13T16:05:26.858Z,87.57
2019-01-13T16:07:55.529Z,87.20
2019-01-13T16:10:25.968Z,87.08
2019-01-13T16:12:54.628Z,87.08
2019-01-13T16:15:23.202Z,87.17
2019-01-13T16:17:51.911Z,87.33
2019-01-13T16:20:32.112Z,87.29
2019-01-13T16:23:00.852Z,87.29
2019-01-13T16:25:30.352Z,87.11
2019-01-13T16:27:58.832Z,87.11
2019-01-13T16:30:29.817Z,86.80
2019-01-13T16:32:58.243Z,86.80
2019-01-13T16:35:38.731Z,86.61
2019-01-13T16:38:07.130Z,86.63
2019-01-13T16:40:35.523Z,86.36
2019-01-13T16:43:04.269Z,86.34
2019-01-13T16:45:33.067Z,86.34
2019-01-13T16:48:01.487Z,86.07
2019-01-13T16:50:30.023Z,86.01
2019-01-13T16:52:58.823Z,86.07
2019-01-13T16:55:28.035Z,86.07
2019-01-13T16:57:56.493Z,86.03
2019-01-13T17:00:27.122Z,85.71
2019-01-13T17:02:57.817Z,85.55
2019-01-13T17:05:26.266Z,85.42
2019-01-13T17:07:55.027Z,85.10
2019-01-13T17:10:25.504Z,85.10
2019-01-13T17:12:54.335Z,85.21
2019-01-13T17:15:25.728Z,84.73
2019-01-13T17:17:54.375Z,84.73
2019-01-13T17:20:23.522Z,84.97
2019-01-13T17:22:51.912Z,84.65
2019-01-13T17:25:25.251Z,84.76
2019-01-13T17:27:53.675Z,84.76
2019-01-13T17:30:33.040Z,84.24
2019-01-13T17:33:01.439Z,84.21
2019-01-13T17:35:30.125Z,84.17
2019-01-13T17:37:58.508Z,83.75
2019-01-13T17:40:27.342Z,83.75
2019-01-13T17:42:55.838Z,83.79
2019-01-13T17:45:26.557Z,83.73
2019-01-13T17:47:55.085Z,83.99
2019-01-13T17:50:25.565Z,84.03
2019-01-13T17:52:54.294Z,84.41
2019-01-13T17:55:24.509Z,84.41
2019-01-13T17:57:53.374Z,84.56
2019-01-13T18:00:36.959Z,84.50
2019-01-13T18:03:08.342Z,84.20
2019-01-13T18:05:36.726Z,84.46
2019-01-13T18:08:05.134Z,84.46
2019-01-13T18:10:33.969Z,84.07
2019-01-13T18:13:02.996Z,84.02
2019-01-13T18:15:31.550Z,84.02
2019-01-13T18:17:59.971Z,83.58
2019-01-13T18:20:28.529Z,82.41
2019-01-13T18:22:57.015Z,82.27
2019-01-13T18:25:25.432Z,82.27
2019-01-13T18:27:53.822Z,82.28
2019-01-13T18:30:24.347Z,81.99
2019-01-13T18:32:52.734Z,81.53
2019-01-13T18:35:22.667Z,80.81
2019-01-13T18:37:51.357Z,80.81
2019-01-13T18:40:24.007Z,81.19
2019-01-13T18:42:52.864Z,80.96
2019-01-13T18:45:21.440Z,80.96
2019-01-13T18:47:49.877Z,81.02
2019-01-13T18:50:20.507Z,81.21
2019-01-13T18:52:58.047Z,81.37
2019-01-13T18:55:26.702Z,81.58
2019-01-13T18:57:55.387Z,81.82
2019-01-13T19:00:25.814Z,81.71
2019-01-13T19:02:54.287Z,81.94
2019-01-13T19:05:25.693Z,82.46
2019-01-13T19:07:54.076Z,82.46
2019-01-13T19:10:34.161Z,81.50
2019-01-13T19:13:08.254Z,84.03
2019-01-13T19:15:36.652Z,84.95
2019-01-13T19:18:05.368Z,86.14
2019-01-13T19:20:33.954Z,86.20
2019-01-13T19:23:02.533Z,86.80
2019-01-13T19:25:31.001Z,86.49
2019-01-13T19:27:59.400Z,86.68
2019-01-13T19:30:28.176Z,87.02
2019-01-13T19:32:56.679Z,87.26
2019-01-13T19:35:28.940Z,87.29
2019-01-13T19:37:57.376Z,87.29
2019-01-13T19:40:25.812Z,87.30
2019-01-13T19:42:54.356Z,86.49
2019-01-13T19:45:22.768Z,86.49
2019-01-13T19:47:51.463Z,86.29
2019-01-13T19:50:22.660Z,86.35
2019-01-13T19:52:51.416Z,85.98
2019-01-13T19:55:20.062Z,85.37
2019-01-13T19:57:48.571Z,85.21
2019-01-13T20:00:31.890Z,84.86
2019-01-13T20:03:00.759Z,84.97
2019-01-13T20:05:29.172Z,84.81
2019-01-13T20:07:57.633Z,84.87
2019-01-13T20:10:26.417Z,85.02
2019-01-13T20:12:54.905Z,84.91
2019-01-13T20:15:23.412Z,84.69
2019-01-13T20:17:52.157Z,84.71
2019-01-13T20:20:21.973Z,84.81
2019-01-13T20:22:50.763Z,84.73
2019-01-13T20:25:19.901Z,84.58
2019-01-13T20:27:48.648Z,84.52
2019-01-13T20:30:22.611Z,84.52
2019-01-13T20:32:51.011Z,83.92
2019-01-13T20:35:19.622Z,84.08
2019-01-13T20:37:48.026Z,83.95
2019-01-13T20:40:17.932Z,83.89
2019-01-13T20:42:47.338Z,83.83
2019-01-13T20:45:18.795Z,83.88
2019-01-13T20:47:47.175Z,84.03
2019-01-13T20:50:16.140Z,84.01
2019-01-13T20:52:44.794Z,84.21
2019-01-13T20:55:15.456Z,83.75
2019-01-13T20:57:44.245Z,83.73
2019-01-13T21:00:15.837Z,83.70
2019-01-13T21:02:44.251Z,83.23
2019-01-13T21:05:12.695Z,83.09
2019-01-13T21:07:41.366Z,82.19
2019-01-13T21:10:12.949Z,82.19
2019-01-13T21:12:41.423Z,82.19
2019-01-13T21:15:13.647Z,82.56
2019-01-13T21:17:42.031Z,82.05
2019-01-13T21:20:11.438Z,81.85
2019-01-13T21:22:39.834Z,81.31
2019-01-13T21:25:11.786Z,81.93
2019-01-13T21:27:40.377Z,81.93
2019-01-13T21:30:11.866Z,81.44
2019-01-13T21:32:40.286Z,81.01
2019-01-13T21:35:10.618Z,81.01
2019-01-13T21:37:39.015Z,81.00
2019-01-13T21:40:10.458Z,81.27
2019-01-13T21:42:38.860Z,80.75
2019-01-13T21:45:11.296Z,80.75
2019-01-13T21:47:39.818Z,80.63
2019-01-13T21:50:11.844Z,81.04
2019-01-13T21:52:40.227Z,80.90
2019-01-13T21:55:11.259Z,80.64
2019-01-13T21:57:39.676Z,80.36
2019-01-13T22:00:12.179Z,80.05
2019-01-13T22:02:41.115Z,79.62
2019-01-13T22:05:10.536Z,79.14
2019-01-13T22:07:39.814Z,79.13
2019-01-13T22:10:16.250Z,79.09
2019-01-13T22:12:44.643Z,79.16
2019-01-13T22:15:15.457Z,78.74
2019-01-13T22:17:44.028Z,78.72
2019-01-13T22:20:15.135Z,79.07
2019-01-13T22:22:43.911Z,79.07
2019-01-13T22:25:13.008Z,79.05
2019-01-13T22:27:41.553Z,79.19
2019-01-13T22:30:13.262Z,79.33
2019-01-13T22:32:41.653Z,78.92
2019-01-13T22:35:10.290Z,79.16
2019-01-13T22:37:38.676Z,78.85
2019-01-13T22:40:10.450Z,78.78
2019-01-13T22:42:39.443Z,78.78
2019-01-13T22:45:11.211Z,78.72
2019-01-13T22:47:39.604Z,78.67
2019-01-13T22:50:11.043Z,78.83
2019-01-13T22:52:39.691Z,78.83
2019-01-13T22:55:10.347Z,78.95
2019-01-13T22:57:39.041Z,78.67
2019-01-13T23:00:12.130Z,79.12
2019-01-13T23:02:40.524Z,78.29
2019-01-13T23:05:08.909Z,78.67
2019-01-13T23:07:37.386Z,78.67
2019-01-13T23:10:08.155Z,78.59
2019-01-13T23:12:36.892Z,78.36
2019-01-13T23:15:06.716Z,78.24
2019-01-13T23:17:35.387Z,77.83
2019-01-13T23:20:05.202Z,77.72
2019-01-13T23:22:33.589Z,77.49
2019-01-13T23:25:01.970Z,76.83
2019-01-13T23:27:30.438Z,76.29
2019-01-13T23:29:58.830Z,76.40
2019-01-13T23:32:27.221Z,76.16
2019-01-13T23:34:55.890Z,76.04
2019-01-13T23:37:24.269Z,76.11
2019-01-13T23:39:52.671Z,76.34
2019-01-13T23:42:21.059Z,77.06
2019-01-13T23:44:49.709Z,77.64
2019-01-13T23:47:18.162Z,78.29
2019-01-13T23:49:46.538Z,79.33
2019-01-13T23:52:14.936Z,81.07
2019-01-13T23:54:43.461Z,82.97
2019-01-13T23:57:11.918Z,83.45
2019-01-13T23:59:40.426Z,83.63
